Time,TemperatureF,DewpointF,PressureIn,WindDirection,WindDirectionDegrees,WindSpeedMPH,WindSpeedGustMPH,Humidity,HourlyPrecipIn,Conditions,Clouds,dailyrainin,SolarRadiationWatts/m^2,SoftwareType,DateUTC
2013-01-13 00:02:00,28.0,5.0,-100.00,NW,314,6.0,10.0,36,0.00,,,0.00,0.000000,,2013-01-13 08:02:00,
2013-01-13 00:11:00,28.0,5.0,-100.00,NW,314,6.0,10.0,36,0.00,,,0.00,0.000000,,2013-01-13 08:11:00,
2013-01-13 00:22:00,28.0,5.0,-100.00,NW,314,6.0,10.0,36,0.00,,,0.00,0.000000,,2013-01-13 08:22:00,
2013-01-13 00:52:00,28.0,4.0,-100.00,NNW,337,7.0,10.0,35,0.00,,,-99.99,0.000000,,2013-01-13 08:52:00,
2013-01-13 01:02:00,28.0,4.0,-100.00,NNW,337,7.0,10.0,35,0.00,,,-99.99,0.000000,,2013-01-13 09:02:00,
2013-01-13 01:12:00,28.0,4.0,-100.00,NNW,337,7.0,10.0,35,0.00,,,-99.99,0.000000,,2013-01-13 09:12:00,
2013-01-13 01:22:00,28.0,4.0,-100.00,NNW,337,7.0,10.0,35,0.00,,,-99.99,0.000000,,2013-01-13 09:22:00,
2013-01-13 01:52:00,27.0,3.0,-100.00,NNW,337,7.0,9.0,35,0.00,,,0.00,0.000000,,2013-01-13 09:52:00,
2013-01-13 02:02:00,27.0,3.0,-100.00,NNW,337,7.0,9.0,35,0.00,,,0.00,0.000000,,2013-01-13 10:02:00,
2013-01-13 02:12:00,27.0,3.0,-100.00,NNW,337,7.0,9.0,35,0.00,,,0.00,0.000000,,2013-01-13 10:12:00,
2013-01-13 02:22:00,27.0,3.0,-100.00,NNW,337,7.0,9.0,35,0.00,,,0.00,0.000000,,2013-01-13 10:22:00,
2013-01-13 02:52:00,27.0,3.0,-100.00,NNW,333,5.0,10.0,35,0.00,,,0.00,0.000000,,2013-01-13 10:52:00,
2013-01-13 03:02:00,27.0,3.0,-100.00,NNW,333,5.0,10.0,35,0.00,,,0.00,0.000000,,2013-01-13 11:02:00,
2013-01-13 03:12:00,27.0,3.0,-100.00,NNW,333,5.0,10.0,35,0.00,,,0.00,0.000000,,2013-01-13 11:12:00,
2013-01-13 03:22:00,27.0,3.0,-100.00,NNW,333,5.0,10.0,35,0.00,,,0.00,0.000000,,2013-01-13 11:22:00,
2013-01-13 03:52:00,29.0,3.0,-100.00,NNW,328,6.0,10.0,32,0.00,,,0.00,0.000000,,2013-01-13 11:52:00,
2013-01-13 04:02:00,29.0,3.0,-100.00,NNW,328,6.0,10.0,32,0.00,,,0.00,0.000000,,2013-01-13 12:02:00,
2013-01-13 04:12:00,29.0,3.0,-100.00,NNW,328,6.0,10.0,32,0.00,,,0.00,0.000000,,2013-01-13 12:12:00,
2013-01-13 04:22:00,29.0,3.0,-100.00,NNW,328,6.0,10.0,32,0.00,,,0.00,0.000000,,2013-01-13 12:22:00,
2013-01-13 04:53:00,27.0,2.0,-100.00,WNW,287,6.0,15.0,33,0.00,,,0.00,0.000000,,2013-01-13 12:53:00,
2013-01-13 05:02:00,27.0,2.0,-100.00,WNW,287,6.0,15.0,33,0.00,,,0.00,0.000000,,2013-01-13 13:02:00,
2013-01-13 05:12:00,27.0,2.0,-100.00,WNW,287,6.0,15.0,33,0.00,,,0.00,0.000000,,2013-01-13 13:12:00,
2013-01-13 05:22:00,27.0,2.0,-100.00,WNW,287,6.0,15.0,33,0.00,,,0.00,0.000000,,2013-01-13 13:22:00,
2013-01-13 05:53:00,26.0,3.0,-100.00,SSW,195,0.0,7.0,37,0.00,,,0.00,0.000000,,2013-01-13 13:53:00,
2013-01-13 06:02:00,26.0,3.0,-100.00,SSW,195,0.0,7.0,37,0.00,,,0.00,0.000000,,2013-01-13 14:02:00,
2013-01-13 06:12:00,26.0,3.0,-100.00,SSW,195,0.0,7.0,37,0.00,,,0.00,0.000000,,2013-01-13 14:12:00,
2013-01-13 06:22:00,26.0,3.0,-100.00,SSW,195,0.0,7.0,37,0.00,,,0.00,0.000000,,2013-01-13 14:22:00,
2013-01-13 06:53:00,25.0,3.0,-100.00,South,187,6.0,8.0,38,0.00,,,0.00,0.000000,,2013-01-13 14:53:00,
2013-01-13 07:03:00,25.0,3.0,-100.00,South,187,6.0,8.0,38,0.00,,,0.00,0.000000,,2013-01-13 15:03:00,
2013-01-13 07:12:00,25.0,3.0,-100.00,South,187,6.0,8.0,38,0.00,,,0.00,0.000000,,2013-01-13 15:12:00,
2013-01-13 07:22:00,25.0,3.0,-100.00,South,187,6.0,8.0,38,0.00,,,0.00,0.000000,,2013-01-13 15:22:00,
2013-01-13 07:53:00,27.0,3.0,-100.00,NW,305,1.0,7.0,35,0.00,,,0.00,5.000000,,2013-01-13 15:53:00,
2013-01-13 08:03:00,27.0,3.0,-100.00,NW,305,1.0,7.0,35,0.00,,,0.00,5.000000,,2013-01-13 16:03:00,
2013-01-13 08:12:00,27.0,3.0,-100.00,NW,305,1.0,7.0,35,0.00,,,0.00,5.000000,,2013-01-13 16:12:00,
2013-01-13 08:22:00,27.0,3.0,-100.00,NW,305,1.0,7.0,35,0.00,,,0.00,5.000000,,2013-01-13 16:22:00,
2013-01-13 08:53:00,29.0,3.0,-100.00,South,173,6.0,7.0,32,0.00,,,0.00,165.000000,,2013-01-13 16:53:00,
2013-01-13 09:03:00,29.0,3.0,-100.00,South,173,6.0,7.0,32,0.00,,,0.00,165.000000,,2013-01-13 17:03:00,
2013-01-13 09:12:00,29.0,3.0,-100.00,South,173,6.0,7.0,32,0.00,,,0.00,165.000000,,2013-01-13 17:12:00,
2013-01-13 09:22:00,29.0,3.0,-100.00,South,173,6.0,7.0,32,0.00,,,0.00,165.000000,,2013-01-13 17:22:00,
2013-01-13 09:53:00,32.0,3.0,-100.00,SSE,166,6.0,9.0,28,0.00,,,0.00,391.000000,,2013-01-13 17:53:00,
2013-01-13 10:02:00,32.0,3.0,-100.00,SSE,166,6.0,9.0,28,0.00,,,0.00,391.000000,,2013-01-13 18:02:00,
2013-01-13 10:12:00,32.0,3.0,-100.00,SSE,166,6.0,9.0,28,0.00,,,0.00,391.000000,,2013-01-13 18:12:00,
2013-01-13 10:22:00,32.0,3.0,-100.00,SSE,166,6.0,9.0,28,0.00,,,0.00,391.000000,,2013-01-13 18:22:00,
2013-01-13 10:53:00,36.0,1.0,-100.00,South,171,4.0,11.0,22,0.00,,,0.00,568.000000,,2013-01-13 18:53:00,
2013-01-13 11:02:00,36.0,1.0,-100.00,South,171,4.0,11.0,22,0.00,,,0.00,568.000000,,2013-01-13 19:02:00,
2013-01-13 11:12:00,36.0,1.0,-100.00,South,171,4.0,11.0,22,0.00,,,0.00,568.000000,,2013-01-13 19:12:00,
2013-01-13 11:22:00,36.0,1.0,-100.00,South,171,4.0,11.0,22,0.00,,,0.00,568.000000,,2013-01-13 19:22:00,
2013-01-13 11:53:00,33.0,-1.0,-100.00,South,178,5.0,13.0,23,0.00,,,0.00,679.000000,,2013-01-13 19:53:00,
2013-01-13 12:02:00,33.0,-1.0,-100.00,South,178,5.0,13.0,23,0.00,,,0.00,679.000000,,2013-01-13 20:02:00,
2013-01-13 12:12:00,33.0,-1.0,-100.00,South,178,5.0,13.0,23,0.00,,,0.00,679.000000,,2013-01-13 20:12:00,
2013-01-13 12:22:00,33.0,-1.0,-100.00,South,178,5.0,13.0,23,0.00,,,0.00,679.000000,,2013-01-13 20:22:00,
2013-01-13 12:53:00,33.0,-2.0,-100.00,ESE,113,3.0,10.0,22,0.00,,,0.00,727.000000,,2013-01-13 20:53:00,
2013-01-13 13:03:00,33.0,-2.0,-100.00,ESE,113,3.0,10.0,22,0.00,,,0.00,727.000000,,2013-01-13 21:03:00,
2013-01-13 13:12:00,33.0,-2.0,-100.00,ESE,113,3.0,10.0,22,0.00,,,0.00,727.000000,,2013-01-13 21:12:00,
2013-01-13 13:22:00,33.0,-2.0,-100.00,ESE,113,3.0,10.0,22,0.00,,,0.00,727.000000,,2013-01-13 21:22:00,
2013-01-13 13:53:00,36.0,1.0,-100.00,SE,130,1.0,12.0,22,0.00,,,0.00,650.000000,,2013-01-13 21:53:00,
2013-01-13 14:02:00,36.0,1.0,-100.00,SE,130,1.0,12.0,22,0.00,,,0.00,650.000000,,2013-01-13 22:02:00,
2013-01-13 14:12:00,36.0,1.0,-100.00,SE,130,1.0,12.0,22,0.00,,,0.00,650.000000,,2013-01-13 22:12:00,
2013-01-13 14:22:00,36.0,1.0,-100.00,SE,130,1.0,12.0,22,0.00,,,0.00,650.000000,,2013-01-13 22:22:00,
2013-01-13 14:52:00,36.0,0.0,-100.00,ESE,113,1.0,10.0,21,0.00,,,0.00,484.000000,,2013-01-13 22:52:00,
2013-01-13 15:02:00,36.0,0.0,-100.00,ESE,113,1.0,10.0,21,0.00,,,0.00,484.000000,,2013-01-13 23:02:00,
2013-01-13 15:12:00,36.0,0.0,-100.00,ESE,113,1.0,10.0,21,0.00,,,0.00,484.000000,,2013-01-13 23:12:00,
2013-01-13 15:22:00,36.0,0.0,-100.00,ESE,113,1.0,10.0,21,0.00,,,0.00,484.000000,,2013-01-13 23:22:00,
2013-01-13 15:53:00,36.0,-1.0,-100.00,SW,229,1.0,10.0,20,0.00,,,0.00,391.000000,,2013-01-13 23:53:00,
2013-01-13 16:02:00,36.0,-1.0,-100.00,SW,229,1.0,10.0,20,0.00,,,0.00,391.000000,,2013-01-14 00:02:00,
2013-01-13 16:12:00,36.0,-1.0,-100.00,SW,229,1.0,10.0,20,0.00,,,0.00,391.000000,,2013-01-14 00:12:00,
2013-01-13 16:22:00,36.0,-1.0,-100.00,SW,229,1.0,10.0,20,0.00,,,0.00,391.000000,,2013-01-14 00:22:00,
2013-01-13 16:53:00,31.0,1.0,-100.00,South,186,5.0,10.0,27,0.00,,,0.00,50.000000,,2013-01-14 00:53:00,
2013-01-13 17:02:00,31.0,1.0,-100.00,South,186,5.0,10.0,27,0.00,,,0.00,50.000000,,2013-01-14 01:02:00,
2013-01-13 17:12:00,31.0,1.0,-100.00,South,186,5.0,10.0,27,0.00,,,0.00,50.000000,,2013-01-14 01:12:00,
2013-01-13 17:22:00,31.0,1.0,-100.00,South,186,5.0,10.0,27,0.00,,,0.00,50.000000,,2013-01-14 01:22:00,
2013-01-13 17:52:00,29.0,1.0,-100.00,SSW,192,0.0,5.0,29,0.00,,,0.00,8.000000,,2013-01-14 01:52:00,
2013-01-13 18:02:00,29.0,1.0,-100.00,SSW,192,0.0,5.0,29,0.00,,,0.00,8.000000,,2013-01-14 02:02:00,
2013-01-13 18:12:00,29.0,1.0,-100.00,SSW,192,0.0,5.0,29,0.00,,,0.00,8.000000,,2013-01-14 02:12:00,
2013-01-13 18:22:00,29.0,1.0,-100.00,SSW,192,0.0,5.0,29,0.00,,,0.00,8.000000,,2013-01-14 02:22:00,
2013-01-13 18:53:00,28.0,1.0,-100.00,South,182,0.0,5.0,30,0.00,,,0.00,0.000000,,2013-01-14 02:53:00,
2013-01-13 19:02:00,28.0,1.0,-100.00,South,182,0.0,5.0,30,0.00,,,0.00,0.000000,,2013-01-14 03:02:00,
2013-01-13 19:12:00,28.0,1.0,-100.00,South,182,0.0,5.0,30,0.00,,,0.00,0.000000,,2013-01-14 03:12:00,
2013-01-13 19:22:00,28.0,1.0,-100.00,South,182,0.0,5.0,30,0.00,,,0.00,0.000000,,2013-01-14 03:22:00,
2013-01-13 19:53:00,27.0,1.0,-100.00,West,274,0.0,4.0,32,0.00,,,0.00,0.000000,,2013-01-14 03:53:00,
2013-01-13 20:02:00,27.0,1.0,-100.00,West,274,0.0,4.0,32,0.00,,,0.00,0.000000,,2013-01-14 04:02:00,
2013-01-13 20:12:00,27.0,1.0,-100.00,West,274,0.0,4.0,32,0.00,,,0.00,0.000000,,2013-01-14 04:12:00,
2013-01-13 20:22:00,27.0,1.0,-100.00,West,274,0.0,4.0,32,0.00,,,0.00,0.000000,,2013-01-14 04:22:00,
2013-01-13 20:53:00,27.0,-2.0,-100.00,SSW,200,11.0,18.0,27,0.00,,,0.00,0.000000,,2013-01-14 04:53:00,
2013-01-13 21:03:00,27.0,-2.0,-100.00,SSW,200,11.0,18.0,27,0.00,,,0.00,0.000000,,2013-01-14 05:03:00,
2013-01-13 21:12:00,27.0,-2.0,-100.00,SSW,200,11.0,18.0,27,0.00,,,0.00,0.000000,,2013-01-14 05:12:00,
2013-01-13 21:22:00,27.0,-2.0,-100.00,SSW,200,11.0,18.0,27,0.00,,,0.00,0.000000,,2013-01-14 05:22:00,
2013-01-13 21:53:00,27.0,-2.0,-100.00,SSW,202,25.0,35.0,27,0.00,,,0.00,0.000000,,2013-01-14 05:53:00,
2013-01-13 22:02:00,27.0,-2.0,-100.00,SSW,202,25.0,35.0,27,0.00,,,0.00,0.000000,,2013-01-14 06:02:00,
2013-01-13 22:12:00,27.0,-2.0,-100.00,SSW,202,25.0,35.0,27,0.00,,,0.00,0.000000,,2013-01-14 06:12:00,
2013-01-13 22:22:00,27.0,-2.0,-100.00,SSW,202,25.0,35.0,27,0.00,,,0.00,0.000000,,2013-01-14 06:22:00,
2013-01-13 22:53:00,26.0,-3.0,-100.00,WNW,283,36.0,47.0,27,0.00,,,0.00,0.000000,,2013-01-14 06:53:00,
2013-01-13 23:02:00,26.0,-3.0,-100.00,WNW,283,36.0,47.0,27,0.00,,,0.00,0.000000,,2013-01-14 07:02:00,
2013-01-13 23:12:00,26.0,-3.0,-100.00,WNW,283,36.0,47.0,27,0.00,,,0.00,0.000000,,2013-01-14 07:12:00,
2013-01-13 23:22:00,26.0,-3.0,-100.00,WNW,283,36.0,47.0,27,0.00,,,0.00,0.000000,,2013-01-14 07:22:00,
2013-01-13 23:52:00,26.0,-4.0,-100.00,SE,139,42.0,58.0,26,0.00,,,0.00,0.000000,,2013-01-14 07:52:00,